sensor_id;sensor_type;location;lat;lon;timestamp;pressure;altitude;pressure_sealevel;temperature
4421;BMP180;11824;51.178;13.546;2024-02-15T00:00:10;100557.00;;;10.20
4421;BMP180;11824;51.178;13.546;2024-02-15T00:02:39;100564.00;;;10.20
4421;BMP180;11824;51.178;13.546;2024-02-15T00:05:08;100563.00;;;10.20
4421;BMP180;11824;51.178;13.546;2024-02-15T00:07:38;100562.00;;;10.20
4421;BMP180;11824;51.178;13.546;2024-02-15T00:10:08;100558.00;;;10.20
4421;BMP180;11824;51.178;13.546;2024-02-15T00:12:37;100571.00;;;10.20
4421;BMP180;11824;51.178;13.546;2024-02-15T00:15:07;100555.00;;;10.20
4421;BMP180;11824;51.178;13.546;2024-02-15T00:17:36;100553.00;;;10.20
4421;BMP180;11824;51.178;13.546;2024-02-15T00:20:06;100555.00;;;10.30
4421;BMP180;11824;51.178;13.546;2024-02-15T00:22:37;100552.00;;;10.30
4421;BMP180;11824;51.178;13.546;2024-02-15T00:25:07;100552.00;;;10.30
4421;BMP180;11824;51.178;13.546;2024-02-15T00:27:36;100542.00;;;10.40
4421;BMP180;11824;51.178;13.546;2024-02-15T00:30:06;100540.00;;;10.40
4421;BMP180;11824;51.178;13.546;2024-02-15T00:32:35;100539.00;;;10.40
4421;BMP180;11824;51.178;13.546;2024-02-15T00:35:06;100536.00;;;10.40
4421;BMP180;11824;51.178;13.546;2024-02-15T00:37:37;100538.00;;;10.40
4421;BMP180;11824;51.178;13.546;2024-02-15T00:40:09;100534.00;;;10.40
4421;BMP180;11824;51.178;13.546;2024-02-15T00:42:38;100538.00;;;10.50
4421;BMP180;11824;51.178;13.546;2024-02-15T00:45:07;100529.00;;;10.50
4421;BMP180;11824;51.178;13.546;2024-02-15T00:47:37;100532.00;;;10.50
4421;BMP180;11824;51.178;13.546;2024-02-15T00:50:09;100529.00;;;10.50
4421;BMP180;11824;51.178;13.546;2024-02-15T00:52:38;100535.00;;;10.50
4421;BMP180;11824;51.178;13.546;2024-02-15T00:55:09;100535.00;;;10.60
4421;BMP180;11824;51.178;13.546;2024-02-15T00:57:38;100540.00;;;10.60
4421;BMP180;11824;51.178;13.546;2024-02-15T01:00:08;100544.00;;;10.60
4421;BMP180;11824;51.178;13.546;2024-02-15T01:02:37;100542.00;;;10.70
4421;BMP180;11824;51.178;13.546;2024-02-15T01:05:06;100535.00;;;10.70
4421;BMP180;11824;51.178;13.546;2024-02-15T01:07:37;100535.00;;;10.70
4421;BMP180;11824;51.178;13.546;2024-02-15T01:10:07;100540.00;;;10.70
4421;BMP180;11824;51.178;13.546;2024-02-15T01:12:37;100528.00;;;10.80
4421;BMP180;11824;51.178;13.546;2024-02-15T01:15:07;100527.00;;;10.80
4421;BMP180;11824;51.178;13.546;2024-02-15T01:17:36;100530.00;;;10.80
4421;BMP180;11824;51.178;13.546;2024-02-15T01:20:05;100522.00;;;10.80
4421;BMP180;11824;51.178;13.546;2024-02-15T01:22:36;100534.00;;;10.90
4421;BMP180;11824;51.178;13.546;2024-02-15T01:25:05;100530.00;;;10.90
4421;BMP180;11824;51.178;13.546;2024-02-15T01:27:34;100526.00;;;10.90
4421;BMP180;11824;51.178;13.546;2024-02-15T01:30:05;100527.00;;;11.00
4421;BMP180;11824;51.178;13.546;2024-02-15T01:32:36;100528.00;;;11.00
4421;BMP180;11824;51.178;13.546;2024-02-15T01:35:07;100529.00;;;11.00
4421;BMP180;11824;51.178;13.546;2024-02-15T01:37:37;100525.00;;;11.00
4421;BMP180;11824;51.178;13.546;2024-02-15T01:40:07;100530.00;;;11.00
4421;BMP180;11824;51.178;13.546;2024-02-15T01:42:40;100523.00;;;11.00
4421;BMP180;11824;51.178;13.546;2024-02-15T01:45:10;100519.00;;;11.00
4421;BMP180;11824;51.178;13.546;2024-02-15T01:47:40;100534.00;;;11.10
4421;BMP180;11824;51.178;13.546;2024-02-15T01:50:11;100532.00;;;11.10
4421;BMP180;11824;51.178;13.546;2024-02-15T01:52:41;100533.00;;;11.10
4421;BMP180;11824;51.178;13.546;2024-02-15T01:55:15;100523.00;;;11.10
4421;BMP180;11824;51.178;13.546;2024-02-15T01:57:45;100525.00;;;11.10
4421;BMP180;11824;51.178;13.546;2024-02-15T02:00:18;100531.00;;;11.10
4421;BMP180;11824;51.178;13.546;2024-02-15T02:02:47;100525.00;;;11.10
4421;BMP180;11824;51.178;13.546;2024-02-15T02:05:16;100517.00;;;11.10
4421;BMP180;11824;51.178;13.546;2024-02-15T02:07:45;100514.00;;;11.10
4421;BMP180;11824;51.178;13.546;2024-02-15T02:10:14;100512.00;;;11.10
4421;BMP180;11824;51.178;13.546;2024-02-15T02:12:43;100521.00;;;11.10
4421;BMP180;11824;51.178;13.546;2024-02-15T02:15:11;100511.00;;;11.20
4421;BMP180;11824;51.178;13.546;2024-02-15T02:17:42;100517.00;;;11.20
4421;BMP180;11824;51.178;13.546;2024-02-15T02:20:11;100521.00;;;11.20
4421;BMP180;11824;51.178;13.546;2024-02-15T02:22:42;100517.00;;;11.20
4421;BMP180;11824;51.178;13.546;2024-02-15T02:25:15;100512.00;;;11.20
4421;BMP180;11824;51.178;13.546;2024-02-15T02:27:45;100512.00;;;11.20
4421;BMP180;11824;51.178;13.546;2024-02-15T02:30:15;100515.00;;;11.20
4421;BMP180;11824;51.178;13.546;2024-02-15T02:32:46;100509.00;;;11.20
4421;BMP180;11824;51.178;13.546;2024-02-15T02:35:15;100513.00;;;11.20
4421;BMP180;11824;51.178;13.546;2024-02-15T02:37:44;100520.00;;;11.20
4421;BMP180;11824;51.178;13.546;2024-02-15T02:40:15;100518.00;;;11.20
4421;BMP180;11824;51.178;13.546;2024-02-15T02:42:50;100522.00;;;11.20
4421;BMP180;11824;51.178;13.546;2024-02-15T02:45:20;100519.00;;;11.30
4421;BMP180;11824;51.178;13.546;2024-02-15T02:47:51;100518.00;;;11.30
4421;BMP180;11824;51.178;13.546;2024-02-15T02:50:21;100518.00;;;11.30
4421;BMP180;11824;51.178;13.546;2024-02-15T02:52:51;100511.00;;;11.30
4421;BMP180;11824;51.178;13.546;2024-02-15T02:55:22;100515.00;;;11.30
4421;BMP180;11824;51.178;13.546;2024-02-15T02:57:51;100517.00;;;11.30
4421;BMP180;11824;51.178;13.546;2024-02-15T03:00:20;100520.00;;;11.30
4421;BMP180;11824;51.178;13.546;2024-02-15T03:02:50;100516.00;;;11.30
4421;BMP180;11824;51.178;13.546;2024-02-15T03:05:19;100514.00;;;11.40
4421;BMP180;11824;51.178;13.546;2024-02-15T03:07:49;100513.00;;;11.40
4421;BMP180;11824;51.178;13.546;2024-02-15T03:10:20;100515.00;;;11.40
4421;BMP180;11824;51.178;13.546;2024-02-15T03:12:49;100505.00;;;11.40
4421;BMP180;11824;51.178;13.546;2024-02-15T03:15:18;100503.00;;;11.40
4421;BMP180;11824;51.178;13.546;2024-02-15T03:17:48;100498.00;;;11.40
4421;BMP180;11824;51.178;13.546;2024-02-15T03:20:17;100502.00;;;11.50
4421;BMP180;11824;51.178;13.546;2024-02-15T03:22:52;100505.00;;;11.50
4421;BMP180;11824;51.178;13.546;2024-02-15T03:25:23;100500.00;;;11.50
4421;BMP180;11824;51.178;13.546;2024-02-15T03:27:53;100507.00;;;11.50
4421;BMP180;11824;51.178;13.546;2024-02-15T03:30:24;100501.00;;;11.50
4421;BMP180;11824;51.178;13.546;2024-02-15T03:32:54;100508.00;;;11.50
4421;BMP180;11824;51.178;13.546;2024-02-15T03:35:24;100505.00;;;11.50
4421;BMP180;11824;51.178;13.546;2024-02-15T03:37:53;100499.00;;;11.50
4421;BMP180;11824;51.178;13.546;2024-02-15T03:40:25;100500.00;;;11.50
4421;BMP180;11824;51.178;13.546;2024-02-15T03:42:54;100508.00;;;11.60
4421;BMP180;11824;51.178;13.546;2024-02-15T03:45:23;100504.00;;;11.60
4421;BMP180;11824;51.178;13.546;2024-02-15T03:47:54;100514.00;;;11.60
4421;BMP180;11824;51.178;13.546;2024-02-15T03:50:24;100511.00;;;11.60
4421;BMP180;11824;51.178;13.546;2024-02-15T03:52:53;100512.00;;;11.60
4421;BMP180;11824;51.178;13.546;2024-02-15T03:55:23;100513.00;;;11.60
4421;BMP180;11824;51.178;13.546;2024-02-15T03:57:53;100507.00;;;11.60
4421;BMP180;11824;51.178;13.546;2024-02-15T04:00:23;100511.00;;;11.60
4421;BMP180;11824;51.178;13.546;2024-02-15T04:02:53;100508.00;;;11.60
4421;BMP180;11824;51.178;13.546;2024-02-15T04:05:22;100519.00;;;11.60
4421;BMP180;11824;51.178;13.546;2024-02-15T04:07:51;100514.00;;;11.60
4421;BMP180;11824;51.178;13.546;2024-02-15T04:10:21;100523.00;;;11.70
4421;BMP180;11824;51.178;13.546;2024-02-15T04:12:51;100517.00;;;11.70
4421;BMP180;11824;51.178;13.546;2024-02-15T04:15:21;100514.00;;;11.70
4421;BMP180;11824;51.178;13.546;2024-02-15T04:17:50;100513.00;;;11.70
4421;BMP180;11824;51.178;13.546;2024-02-15T04:20:23;100526.00;;;11.70
4421;BMP180;11824;51.178;13.546;2024-02-15T04:22:52;100525.00;;;11.70
4421;BMP180;11824;51.178;13.546;2024-02-15T04:25:22;100522.00;;;11.70
4421;BMP180;11824;51.178;13.546;2024-02-15T04:27:56;100527.00;;;11.70
4421;BMP180;11824;51.178;13.546;2024-02-15T04:30:31;100523.00;;;11.70
4421;BMP180;11824;51.178;13.546;2024-02-15T04:33:00;100525.00;;;11.70
4421;BMP180;11824;51.178;13.546;2024-02-15T04:35:28;100519.00;;;11.70
4421;BMP180;11824;51.178;13.546;2024-02-15T04:37:58;100514.00;;;11.70
4421;BMP180;11824;51.178;13.546;2024-02-15T04:40:27;100514.00;;;11.70
4421;BMP180;11824;51.178;13.546;2024-02-15T04:42:57;100527.00;;;11.80
4421;BMP180;11824;51.178;13.546;2024-02-15T04:45:26;100523.00;;;11.80
4421;BMP180;11824;51.178;13.546;2024-02-15T04:47:55;100516.00;;;11.80
4421;BMP180;11824;51.178;13.546;2024-02-15T04:50:29;100521.00;;;11.80
4421;BMP180;11824;51.178;13.546;2024-02-15T04:52:58;100532.00;;;11.80
4421;BMP180;11824;51.178;13.546;2024-02-15T04:55:26;100536.00;;;11.80
4421;BMP180;11824;51.178;13.546;2024-02-15T04:58:00;100534.00;;;11.80
4421;BMP180;11824;51.178;13.546;2024-02-15T05:00:29;100523.00;;;11.80
4421;BMP180;11824;51.178;13.546;2024-02-15T05:02:57;100525.00;;;11.80
4421;BMP180;11824;51.178;13.546;2024-02-15T05:05:26;100529.00;;;11.80
4421;BMP180;11824;51.178;13.546;2024-02-15T05:07:56;100533.00;;;11.80
4421;BMP180;11824;51.178;13.546;2024-02-15T05:10:26;100526.00;;;11.90
4421;BMP180;11824;51.178;13.546;2024-02-15T05:12:54;100535.00;;;11.90
4421;BMP180;11824;51.178;13.546;2024-02-15T05:15:24;100536.00;;;11.90
4421;BMP180;11824;51.178;13.546;2024-02-15T05:17:53;100537.00;;;11.90
4421;BMP180;11824;51.178;13.546;2024-02-15T05:20:23;100547.00;;;11.90
4421;BMP180;11824;51.178;13.546;2024-02-15T05:22:52;100549.00;;;11.90
4421;BMP180;11824;51.178;13.546;2024-02-15T05:25:21;100551.00;;;11.90
4421;BMP180;11824;51.178;13.546;2024-02-15T05:27:53;100549.00;;;11.90
4421;BMP180;11824;51.178;13.546;2024-02-15T05:30:25;100540.00;;;11.90
4421;BMP180;11824;51.178;13.546;2024-02-15T05:32:54;100550.00;;;11.90
4421;BMP180;11824;51.178;13.546;2024-02-15T05:35:24;100551.00;;;11.90
4421;BMP180;11824;51.178;13.546;2024-02-15T05:37:54;100543.00;;;11.90
4421;BMP180;11824;51.178;13.546;2024-02-15T05:40:23;100539.00;;;11.90
4421;BMP180;11824;51.178;13.546;2024-02-15T05:42:56;100549.00;;;11.80
4421;BMP180;11824;51.178;13.546;2024-02-15T05:45:31;100556.00;;;11.80
4421;BMP180;11824;51.178;13.546;2024-02-15T05:48:05;100545.00;;;11.80
4421;BMP180;11824;51.178;13.546;2024-02-15T05:50:40;100541.00;;;11.70
4421;BMP180;11824;51.178;13.546;2024-02-15T05:53:09;100555.00;;;11.70
4421;BMP180;11824;51.178;13.546;2024-02-15T05:55:37;100561.00;;;11.70
4421;BMP180;11824;51.178;13.546;2024-02-15T05:58:08;100556.00;;;11.70
4421;BMP180;11824;51.178;13.546;2024-02-15T06:00:39;100564.00;;;11.70
4421;BMP180;11824;51.178;13.546;2024-02-15T06:03:09;100555.00;;;11.70
4421;BMP180;11824;51.178;13.546;2024-02-15T06:05:38;100556.00;;;11.70
4421;BMP180;11824;51.178;13.546;2024-02-15T06:08:07;100553.00;;;11.70
4421;BMP180;11824;51.178;13.546;2024-02-15T06:10:36;100559.00;;;11.70
4421;BMP180;11824;51.178;13.546;2024-02-15T06:13:05;100564.00;;;11.70
4421;BMP180;11824;51.178;13.546;2024-02-15T06:15:36;100568.00;;;11.60
4421;BMP180;11824;51.178;13.546;2024-02-15T06:18:06;100563.00;;;11.60
4421;BMP180;11824;51.178;13.546;2024-02-15T06:20:37;100561.00;;;11.70
4421;BMP180;11824;51.178;13.546;2024-02-15T06:23:07;100570.00;;;11.60
4421;BMP180;11824;51.178;13.546;2024-02-15T06:25:36;100586.00;;;11.70
4421;BMP180;11824;51.178;13.546;2024-02-15T06:28:05;100586.00;;;11.70
4421;BMP180;11824;51.178;13.546;2024-02-15T06:30:40;100583.00;;;11.60
4421;BMP180;11824;51.178;13.546;2024-02-15T06:33:28;100595.00;;;11.60
4421;BMP180;11824;51.178;13.546;2024-02-15T06:36:14;100587.00;;;11.60
4421;BMP180;11824;51.178;13.546;2024-02-15T06:39:00;100587.00;;;11.60
4421;BMP180;11824;51.178;13.546;2024-02-15T06:41:46;100578.00;;;11.60
4421;BMP180;11824;51.178;13.546;2024-02-15T06:44:15;100574.00;;;11.60
4421;BMP180;11824;51.178;13.546;2024-02-15T06:46:44;100582.00;;;11.60
4421;BMP180;11824;51.178;13.546;2024-02-15T06:49:15;100582.00;;;11.60
4421;BMP180;11824;51.178;13.546;2024-02-15T06:51:44;100587.00;;;11.60
4421;BMP180;11824;51.178;13.546;2024-02-15T06:54:17;100582.00;;;11.60
4421;BMP180;11824;51.178;13.546;2024-02-15T06:56:46;100586.00;;;11.70
4421;BMP180;11824;51.178;13.546;2024-02-15T06:59:15;100580.00;;;11.70
4421;BMP180;11824;51.178;13.546;2024-02-15T07:01:45;100579.00;;;11.70
4421;BMP180;11824;51.178;13.546;2024-02-15T07:04:15;100582.00;;;11.70
4421;BMP180;11824;51.178;13.546;2024-02-15T07:06:44;100578.00;;;11.80
4421;BMP180;11824;51.178;13.546;2024-02-15T07:09:15;100576.00;;;11.80
4421;BMP180;11824;51.178;13.546;2024-02-15T07:11:47;100578.00;;;11.80
4421;BMP180;11824;51.178;13.546;2024-02-15T07:14:18;100579.00;;;11.90
4421;BMP180;11824;51.178;13.546;2024-02-15T07:16:48;100581.00;;;11.90
4421;BMP180;11824;51.178;13.546;2024-02-15T07:19:19;100578.00;;;11.90
4421;BMP180;11824;51.178;13.546;2024-02-15T07:21:48;100578.00;;;12.00
4421;BMP180;11824;51.178;13.546;2024-02-15T07:24:18;100586.00;;;12.00
4421;BMP180;11824;51.178;13.546;2024-02-15T07:26:47;100586.00;;;12.10
4421;BMP180;11824;51.178;13.546;2024-02-15T07:29:20;100599.00;;;12.10
4421;BMP180;11824;51.178;13.546;2024-02-15T07:31:50;100599.00;;;12.20
4421;BMP180;11824;51.178;13.546;2024-02-15T07:34:20;100583.00;;;12.20
4421;BMP180;11824;51.178;13.546;2024-02-15T07:36:51;100601.00;;;12.30
4421;BMP180;11824;51.178;13.546;2024-02-15T07:39:19;100604.00;;;12.30
4421;BMP180;11824;51.178;13.546;2024-02-15T07:41:52;100599.00;;;12.40
4421;BMP180;11824;51.178;13.546;2024-02-15T07:44:22;100597.00;;;12.50
4421;BMP180;11824;51.178;13.546;2024-02-15T07:46:51;100593.00;;;12.50
4421;BMP180;11824;51.178;13.546;2024-02-15T07:49:21;100594.00;;;12.60
4421;BMP180;11824;51.178;13.546;2024-02-15T07:51:50;100589.00;;;12.60
4421;BMP180;11824;51.178;13.546;2024-02-15T07:54:21;100589.00;;;12.70
4421;BMP180;11824;51.178;13.546;2024-02-15T07:56:50;100596.00;;;12.80
4421;BMP180;11824;51.178;13.546;2024-02-15T07:59:19;100597.00;;;12.90
4421;BMP180;11824;51.178;13.546;2024-02-15T08:01:48;100587.00;;;13.00
4421;BMP180;11824;51.178;13.546;2024-02-15T08:04:19;100590.00;;;13.10
4421;BMP180;11824;51.178;13.546;2024-02-15T08:06:48;100580.00;;;13.10
4421;BMP180;11824;51.178;13.546;2024-02-15T08:09:19;100568.00;;;13.20
4421;BMP180;11824;51.178;13.546;2024-02-15T08:11:51;100574.00;;;13.20
4421;BMP180;11824;51.178;13.546;2024-02-15T08:14:20;100564.00;;;13.30
4421;BMP180;11824;51.178;13.546;2024-02-15T08:16:49;100566.00;;;13.30
4421;BMP180;11824;51.178;13.546;2024-02-15T08:19:18;100557.00;;;13.40
4421;BMP180;11824;51.178;13.546;2024-02-15T08:21:48;100568.00;;;13.50
4421;BMP180;11824;51.178;13.546;2024-02-15T08:24:18;100571.00;;;13.70
4421;BMP180;11824;51.178;13.546;2024-02-15T08:26:47;100572.00;;;13.80
4421;BMP180;11824;51.178;13.546;2024-02-15T08:29:16;100576.00;;;13.80
4421;BMP180;11824;51.178;13.546;2024-02-15T08:31:45;100573.00;;;13.90
4421;BMP180;11824;51.178;13.546;2024-02-15T08:34:14;100566.00;;;13.90
4421;BMP180;11824;51.178;13.546;2024-02-15T08:36:43;100579.00;;;14.00
4421;BMP180;11824;51.178;13.546;2024-02-15T08:39:14;100587.00;;;14.00
4421;BMP180;11824;51.178;13.546;2024-02-15T08:41:44;100589.00;;;14.00
4421;BMP180;11824;51.178;13.546;2024-02-15T08:44:13;100589.00;;;14.00
4421;BMP180;11824;51.178;13.546;2024-02-15T08:46:43;100581.00;;;14.10
4421;BMP180;11824;51.178;13.546;2024-02-15T08:49:13;100580.00;;;14.10
4421;BMP180;11824;51.178;13.546;2024-02-15T08:51:42;100579.00;;;14.20
4421;BMP180;11824;51.178;13.546;2024-02-15T08:54:12;100579.00;;;14.30
4421;BMP180;11824;51.178;13.546;2024-02-15T08:56:41;100580.00;;;14.30
4421;BMP180;11824;51.178;13.546;2024-02-15T08:59:11;100588.00;;;14.40
4421;BMP180;11824;51.178;13.546;2024-02-15T09:01:39;100591.00;;;14.30
4421;BMP180;11824;51.178;13.546;2024-02-15T09:04:08;100590.00;;;14.30
4421;BMP180;11824;51.178;13.546;2024-02-15T09:06:37;100586.00;;;14.30
4421;BMP180;11824;51.178;13.546;2024-02-15T09:09:06;100577.00;;;14.30
4421;BMP180;11824;51.178;13.546;2024-02-15T09:11:36;100587.00;;;14.40
4421;BMP180;11824;51.178;13.546;2024-02-15T09:14:05;100575.00;;;14.40
4421;BMP180;11824;51.178;13.546;2024-02-15T09:16:36;100580.00;;;14.50
4421;BMP180;11824;51.178;13.546;2024-02-15T09:19:05;100587.00;;;14.50
4421;BMP180;11824;51.178;13.546;2024-02-15T09:21:34;100570.00;;;14.60
4421;BMP180;11824;51.178;13.546;2024-02-15T09:24:04;100582.00;;;14.70
4421;BMP180;11824;51.178;13.546;2024-02-15T09:26:33;100581.00;;;14.80
4421;BMP180;11824;51.178;13.546;2024-02-15T09:29:05;100587.00;;;14.90
4421;BMP180;11824;51.178;13.546;2024-02-15T09:31:35;100582.00;;;15.00
4421;BMP180;11824;51.178;13.546;2024-02-15T09:34:04;100590.00;;;15.00
4421;BMP180;11824;51.178;13.546;2024-02-15T09:36:34;100590.00;;;15.00
4421;BMP180;11824;51.178;13.546;2024-02-15T09:39:05;100587.00;;;15.10
4421;BMP180;11824;51.178;13.546;2024-02-15T09:41:34;100592.00;;;15.10
4421;BMP180;11824;51.178;13.546;2024-02-15T09:44:04;100588.00;;;15.10
4421;BMP180;11824;51.178;13.546;2024-02-15T09:46:36;100589.00;;;15.10
4421;BMP180;11824;51.178;13.546;2024-02-15T09:49:05;100591.00;;;15.00
4421;BMP180;11824;51.178;13.546;2024-02-15T09:51:36;100591.00;;;15.00
4421;BMP180;11824;51.178;13.546;2024-02-15T09:54:05;100591.00;;;15.00
4421;BMP180;11824;51.178;13.546;2024-02-15T09:56:36;100590.00;;;15.00
4421;BMP180;11824;51.178;13.546;2024-02-15T09:59:07;100591.00;;;15.10
4421;BMP180;11824;51.178;13.546;2024-02-15T10:01:37;100596.00;;;15.10
4421;BMP180;11824;51.178;13.546;2024-02-15T10:04:08;100596.00;;;15.10
4421;BMP180;11824;51.178;13.546;2024-02-15T10:06:37;100600.00;;;15.10
4421;BMP180;11824;51.178;13.546;2024-02-15T10:09:25;100603.00;;;15.10
4421;BMP180;11824;51.178;13.546;2024-02-15T10:14:27;100603.00;;;15.20
4421;BMP180;11824;51.178;13.546;2024-02-15T10:16:56;100600.00;;;15.20
4421;BMP180;11824;51.178;13.546;2024-02-15T10:19:33;100594.00;;;15.20
4421;BMP180;11824;51.178;13.546;2024-02-15T10:22:06;100590.00;;;15.20
4421;BMP180;11824;51.178;13.546;2024-02-15T10:24:36;100593.00;;;15.20
4421;BMP180;11824;51.178;13.546;2024-02-15T10:27:07;100598.00;;;15.30
4421;BMP180;11824;51.178;13.546;2024-02-15T10:29:39;100606.00;;;15.30
4421;BMP180;11824;51.178;13.546;2024-02-15T10:32:08;100592.00;;;15.30
4421;BMP180;11824;51.178;13.546;2024-02-15T10:34:44;100589.00;;;15.40
4421;BMP180;11824;51.178;13.546;2024-02-15T10:37:14;100587.00;;;15.40
4421;BMP180;11824;51.178;13.546;2024-02-15T10:39:44;100586.00;;;15.50
4421;BMP180;11824;51.178;13.546;2024-02-15T10:42:14;100586.00;;;15.50
4421;BMP180;11824;51.178;13.546;2024-02-15T10:44:47;100586.00;;;15.50
4421;BMP180;11824;51.178;13.546;2024-02-15T10:47:17;100580.00;;;15.60
4421;BMP180;11824;51.178;13.546;2024-02-15T10:49:47;100589.00;;;15.70
4421;BMP180;11824;51.178;13.546;2024-02-15T10:52:17;100580.00;;;15.70
4421;BMP180;11824;51.178;13.546;2024-02-15T10:54:52;100582.00;;;15.70
4421;BMP180;11824;51.178;13.546;2024-02-15T10:57:26;100592.00;;;15.80
4421;BMP180;11824;51.178;13.546;2024-02-15T10:59:59;100570.00;;;15.80
4421;BMP180;11824;51.178;13.546;2024-02-15T11:02:30;100570.00;;;15.80
4421;BMP180;11824;51.178;13.546;2024-02-15T11:05:05;100572.00;;;15.90
4421;BMP180;11824;51.178;13.546;2024-02-15T11:07:37;100569.00;;;16.00
4421;BMP180;11824;51.178;13.546;2024-02-15T11:10:09;100566.00;;;16.10
4421;BMP180;11824;51.178;13.546;2024-02-15T11:12:39;100563.00;;;16.20
4421;BMP180;11824;51.178;13.546;2024-02-15T11:15:41;100575.00;;;16.30
4421;BMP180;11824;51.178;13.546;2024-02-15T11:18:13;100572.00;;;16.40
4421;BMP180;11824;51.178;13.546;2024-02-15T11:21:02;100561.00;;;16.50
4421;BMP180;11824;51.178;13.546;2024-02-15T11:23:30;100559.00;;;16.70
4421;BMP180;11824;51.178;13.546;2024-02-15T11:26:04;100569.00;;;16.80
4421;BMP180;11824;51.178;13.546;2024-02-15T11:28:38;100557.00;;;17.00
4421;BMP180;11824;51.178;13.546;2024-02-15T11:31:53;100559.00;;;17.10
4421;BMP180;11824;51.178;13.546;2024-02-15T11:34:45;100557.00;;;17.20
4421;BMP180;11824;51.178;13.546;2024-02-15T11:40:22;100553.00;;;17.10
4421;BMP180;11824;51.178;13.546;2024-02-15T11:42:53;100546.00;;;17.00
4421;BMP180;11824;51.178;13.546;2024-02-15T11:45:22;100554.00;;;16.90
4421;BMP180;11824;51.178;13.546;2024-02-15T11:47:54;100542.00;;;16.80
4421;BMP180;11824;51.178;13.546;2024-02-15T11:50:23;100544.00;;;16.70
4421;BMP180;11824;51.178;13.546;2024-02-15T11:53:00;100542.00;;;16.70
4421;BMP180;11824;51.178;13.546;2024-02-15T11:55:33;100534.00;;;16.60
4421;BMP180;11824;51.178;13.546;2024-02-15T11:58:03;100536.00;;;16.50
4421;BMP180;11824;51.178;13.546;2024-02-15T12:00:44;100543.00;;;16.50
4421;BMP180;11824;51.178;13.546;2024-02-15T12:03:32;100533.00;;;16.40
4421;BMP180;11824;51.178;13.546;2024-02-15T12:06:33;100534.00;;;16.40
4421;BMP180;11824;51.178;13.546;2024-02-15T12:09:19;100533.00;;;16.50
4421;BMP180;11824;51.178;13.546;2024-02-15T12:12:17;100532.00;;;16.60
4421;BMP180;11824;51.178;13.546;2024-02-15T12:15:04;100529.00;;;16.60
4421;BMP180;11824;51.178;13.546;2024-02-15T12:17:50;100525.00;;;16.60
4421;BMP180;11824;51.178;13.546;2024-02-15T12:20:38;100541.00;;;16.70
4421;BMP180;11824;51.178;13.546;2024-02-15T12:23:07;100536.00;;;16.70
4421;BMP180;11824;51.178;13.546;2024-02-15T12:25:36;100531.00;;;16.60
4421;BMP180;11824;51.178;13.546;2024-02-15T12:28:06;100525.00;;;16.60
4421;BMP180;11824;51.178;13.546;2024-02-15T12:30:35;100529.00;;;16.60
4421;BMP180;11824;51.178;13.546;2024-02-15T12:33:12;100520.00;;;16.60
4421;BMP180;11824;51.178;13.546;2024-02-15T12:35:50;100520.00;;;16.60
4421;BMP180;11824;51.178;13.546;2024-02-15T12:38:19;100521.00;;;16.60
4421;BMP180;11824;51.178;13.546;2024-02-15T12:40:48;100519.00;;;16.60
4421;BMP180;11824;51.178;13.546;2024-02-15T12:43:17;100520.00;;;16.50
4421;BMP180;11824;51.178;13.546;2024-02-15T12:45:46;100522.00;;;16.50
4421;BMP180;11824;51.178;13.546;2024-02-15T12:48:15;100515.00;;;16.50
4421;BMP180;11824;51.178;13.546;2024-02-15T12:50:46;100508.00;;;16.50
4421;BMP180;11824;51.178;13.546;2024-02-15T12:53:22;100514.00;;;16.60
4421;BMP180;11824;51.178;13.546;2024-02-15T12:55:55;100514.00;;;16.60
4421;BMP180;11824;51.178;13.546;2024-02-15T12:58:24;100504.00;;;16.60
4421;BMP180;11824;51.178;13.546;2024-02-15T13:00:55;100506.00;;;16.60
4421;BMP180;11824;51.178;13.546;2024-02-15T13:03:26;100511.00;;;16.60
4421;BMP180;11824;51.178;13.546;2024-02-15T13:05:55;100505.00;;;16.60
4421;BMP180;11824;51.178;13.546;2024-02-15T13:08:26;100500.00;;;16.70
4421;BMP180;11824;51.178;13.546;2024-02-15T13:10:55;100506.00;;;16.80
4421;BMP180;11824;51.178;13.546;2024-02-15T13:13:24;100511.00;;;16.90
4421;BMP180;11824;51.178;13.546;2024-02-15T13:15:52;100502.00;;;16.90
4421;BMP180;11824;51.178;13.546;2024-02-15T13:18:21;100509.00;;;17.00
4421;BMP180;11824;51.178;13.546;2024-02-15T13:20:50;100503.00;;;17.00
4421;BMP180;11824;51.178;13.546;2024-02-15T13:23:20;100503.00;;;17.10
4421;BMP180;11824;51.178;13.546;2024-02-15T13:25:54;100507.00;;;17.10
4421;BMP180;11824;51.178;13.546;2024-02-15T13:28:24;100501.00;;;17.20
4421;BMP180;11824;51.178;13.546;2024-02-15T13:30:53;100502.00;;;17.30
4421;BMP180;11824;51.178;13.546;2024-02-15T13:33:24;100514.00;;;17.40
4421;BMP180;11824;51.178;13.546;2024-02-15T13:35:54;100514.00;;;17.50
4421;BMP180;11824;51.178;13.546;2024-02-15T13:38:23;100510.00;;;17.50
4421;BMP180;11824;51.178;13.546;2024-02-15T13:40:53;100505.00;;;17.60
4421;BMP180;11824;51.178;13.546;2024-02-15T13:43:24;100502.00;;;17.60
4421;BMP180;11824;51.178;13.546;2024-02-15T13:45:52;100496.00;;;17.60
4421;BMP180;11824;51.178;13.546;2024-02-15T13:48:21;100497.00;;;17.70
4421;BMP180;11824;51.178;13.546;2024-02-15T13:50:52;100494.00;;;17.70
4421;BMP180;11824;51.178;13.546;2024-02-15T13:53:21;100498.00;;;17.80
4421;BMP180;11824;51.178;13.546;2024-02-15T13:55:54;100482.00;;;17.80
4421;BMP180;11824;51.178;13.546;2024-02-15T13:58:22;100485.00;;;17.90
4421;BMP180;11824;51.178;13.546;2024-02-15T14:00:51;100483.00;;;18.00
4421;BMP180;11824;51.178;13.546;2024-02-15T14:03:21;100479.00;;;18.00
4421;BMP180;11824;51.178;13.546;2024-02-15T14:05:50;100478.00;;;18.00
4421;BMP180;11824;51.178;13.546;2024-02-15T14:08:19;100483.00;;;17.90
4421;BMP180;11824;51.178;13.546;2024-02-15T14:10:50;100477.00;;;17.90
4421;BMP180;11824;51.178;13.546;2024-02-15T14:13:20;100474.00;;;17.90
4421;BMP180;11824;51.178;13.546;2024-02-15T14:15:50;100485.00;;;17.90
4421;BMP180;11824;51.178;13.546;2024-02-15T14:18:19;100475.00;;;17.80
4421;BMP180;11824;51.178;13.546;2024-02-15T14:20:48;100472.00;;;17.70
4421;BMP180;11824;51.178;13.546;2024-02-15T14:23:18;100471.00;;;17.60